Time;durP1;ratioP1;P1;durP2;ratioP2;P2;SDS_P1;SDS_P2;PMS_P1;PMS_P2;Temp;Humidity;BMP_temperature;BMP_pressure;BME280_temperature;BME280_humidity;BME280_pressure;Samples;Min_cycle;Max_cycle;Signal;HPM_P1;HPM_P2
2022/03/15 00:01:17;;;;;;;3.00;2.80;;;16.50;49.50;17.40;102014.00;;;;5048897;28;20186;-47
2022/03/15 00:03:43;;;;;;;3.13;2.83;;;16.50;49.50;17.40;102018.00;;;;5047951;28;20202;-48
2022/03/15 00:06:08;;;;;;;4.10;2.90;;;16.40;49.40;17.40;102011.00;;;;5046063;28;20717;-48
2022/03/15 00:08:34;;;;;;;2.83;2.63;;;16.40;49.50;17.30;102002.00;;;;5047612;28;20853;-48
2022/03/15 00:11:05;;;;;;;3.07;2.77;;;16.40;49.50;17.30;101997.00;;;;5047227;28;20171;-48
2022/03/15 00:13:35;;;;;;;3.20;2.60;;;16.40;49.60;17.30;101987.00;;;;5061324;28;20168;-48
2022/03/15 00:16:01;;;;;;;2.93;2.63;;;16.40;49.60;17.30;102003.00;;;;5067281;28;20807;-47
2022/03/15 00:18:30;;;;;;;2.80;2.60;;;16.30;49.60;17.30;102002.00;;;;5074345;28;20173;-49
2022/03/15 00:20:57;;;;;;;2.80;2.60;;;16.30;49.60;17.30;101999.00;;;;5077453;28;20631;-48
2022/03/15 00:23:23;;;;;;;3.27;2.97;;;16.30;49.60;17.30;101993.00;;;;5069404;28;20177;-48
2022/03/15 00:25:50;;;;;;;3.00;2.70;;;16.30;49.60;17.30;101990.00;;;;5067324;28;20292;-49
2022/03/15 00:28:16;;;;;;;2.80;2.60;;;16.30;49.70;17.30;101994.00;;;;5065486;28;20173;-49
2022/03/15 00:30:42;;;;;;;2.80;2.60;;;16.30;49.70;17.30;101991.00;;;;5067447;28;20256;-48
2022/03/15 00:33:08;;;;;;;2.83;2.63;;;16.20;49.70;17.30;101998.00;;;;5066766;28;20176;-48
2022/03/15 00:35:35;;;;;;;2.87;2.60;;;16.20;49.70;17.20;101988.00;;;;5066476;28;20186;-48
2022/03/15 00:38:00;;;;;;;2.80;2.60;;;16.10;49.60;17.20;101992.00;;;;5065510;28;20243;-48
2022/03/15 00:40:26;;;;;;;3.00;2.80;;;16.20;49.70;17.20;102002.00;;;;5067484;28;20587;-47
2022/03/15 00:42:52;;;;;;;2.70;2.50;;;16.10;49.70;17.20;101985.00;;;;5066914;28;20177;-49
2022/03/15 00:45:18;;;;;;;2.93;2.40;;;16.20;49.80;17.20;101983.00;;;;5066719;28;20209;-46
2022/03/15 00:47:44;;;;;;;2.83;2.63;;;16.10;49.80;17.20;101980.00;;;;5066844;28;20184;-48
2022/03/15 00:50:10;;;;;;;3.03;2.77;;;16.10;49.80;17.10;101980.00;;;;5068425;28;20252;-49
2022/03/15 00:52:36;;;;;;;2.80;2.60;;;16.10;49.80;17.10;101985.00;;;;5065668;28;20166;-47
2022/03/15 00:55:04;;;;;;;3.40;2.70;;;16.10;49.80;17.10;101987.00;;;;5066871;28;20641;-48
2022/03/15 00:57:31;;;;;;;2.60;2.40;;;16.10;49.80;17.10;101997.00;;;;5064820;28;20181;-47
2022/03/15 00:59:57;;;;;;;2.70;2.50;;;16.00;49.80;17.10;101996.00;;;;5066122;28;20641;-48
2022/03/15 01:02:23;;;;;;;2.80;2.60;;;16.00;49.80;17.10;101997.00;;;;5066817;28;20174;-47
2022/03/15 01:04:49;;;;;;;2.83;2.63;;;16.00;49.80;17.10;101991.00;;;;5066232;28;20268;-48
2022/03/15 01:07:15;;;;;;;2.87;2.60;;;16.10;49.90;17.10;101990.00;;;;5065970;28;20197;-47
2022/03/15 01:09:40;;;;;;;2.90;2.70;;;16.00;49.70;17.10;101996.00;;;;5066702;28;20546;-48
2022/03/15 01:12:07;;;;;;;3.27;2.53;;;16.00;49.80;17.00;102001.00;;;;5066324;28;20174;-46
2022/03/15 01:14:33;;;;;;;2.93;2.70;;;16.00;49.80;17.00;101991.00;;;;5066596;28;20193;-49
2022/03/15 01:16:59;;;;;;;2.93;2.63;;;16.00;49.80;17.00;101993.00;;;;5065956;28;20185;-48
2022/03/15 01:19:24;;;;;;;2.73;2.53;;;15.90;49.70;17.00;101995.00;;;;5072309;28;20177;-48
2022/03/15 01:21:53;;;;;;;2.70;2.50;;;15.90;49.70;17.00;101986.00;;;;5074801;28;20182;-48
2022/03/15 01:24:19;;;;;;;3.07;2.77;;;15.90;49.70;17.00;101986.00;;;;5070133;28;20213;-49
2022/03/15 01:26:45;;;;;;;2.80;2.60;;;15.90;49.70;17.00;101987.00;;;;5068003;28;20252;-47
2022/03/15 01:29:11;;;;;;;2.87;2.60;;;15.90;49.70;17.00;101986.00;;;;5067883;28;20243;-49
2022/03/15 01:31:37;;;;;;;2.80;2.60;;;15.90;49.60;17.00;101985.00;;;;5067724;28;20161;-49
2022/03/15 01:34:03;;;;;;;2.70;2.50;;;15.90;49.60;16.90;101978.00;;;;5066984;28;20260;-49
2022/03/15 01:36:30;;;;;;;2.70;2.50;;;15.90;49.70;16.90;101982.00;;;;5065717;28;20335;-48
2022/03/15 01:38:57;;;;;;;2.70;2.50;;;15.90;49.70;16.90;101989.00;;;;5066087;28;20184;-47
2022/03/15 01:41:22;;;;;;;2.60;2.40;;;15.90;49.80;16.90;101989.00;;;;5066048;28;20256;-47
2022/03/15 01:43:48;;;;;;;2.80;2.60;;;15.80;49.70;16.90;101987.00;;;;5066256;28;20277;-46
2022/03/15 01:46:14;;;;;;;2.97;2.70;;;15.80;49.70;16.90;101986.00;;;;5065333;28;20277;-48
2022/03/15 01:48:40;;;;;;;2.50;2.30;;;15.80;49.70;16.90;101979.00;;;;5068648;28;20742;-46
2022/03/15 01:51:07;;;;;;;2.80;2.60;;;15.80;49.70;16.90;101985.00;;;;5068929;28;20172;-47
2022/03/15 01:53:32;;;;;;;2.80;2.57;;;15.80;49.70;16.80;101979.00;;;;5074938;28;20178;-49
2022/03/15 01:55:59;;;;;;;2.60;2.40;;;15.80;49.70;16.80;101978.00;;;;5069536;28;20192;-49
2022/03/15 01:58:25;;;;;;;2.60;2.40;;;15.80;49.70;16.80;101973.00;;;;5065815;28;20177;-47
2022/03/15 02:00:51;;;;;;;2.70;2.50;;;15.70;49.60;16.80;101973.00;;;;5066392;28;20176;-48
2022/03/15 02:03:17;;;;;;;2.57;2.37;;;15.70;49.60;16.80;101979.00;;;;5065898;28;20170;-48
2022/03/15 02:05:43;;;;;;;2.70;2.50;;;15.70;49.60;16.80;101971.00;;;;5064175;28;20296;-47
2022/03/15 02:08:16;;;;;;;2.70;2.50;;;15.70;49.60;16.80;101962.00;;;;5065275;28;20176;-47
2022/03/15 02:10:41;;;;;;;2.70;2.50;;;15.70;49.60;16.80;101967.00;;;;5065891;28;20162;-46
2022/03/15 02:13:08;;;;;;;3.20;2.90;;;15.70;49.60;16.80;101969.00;;;;5066019;28;20169;-47
2022/03/15 02:15:34;;;;;;;2.53;2.33;;;15.70;49.60;16.80;101965.00;;;;5065258;28;20630;-47
2022/03/15 02:17:59;;;;;;;2.70;2.50;;;15.60;49.50;16.80;101979.00;;;;5065346;28;20184;-46
2022/03/15 02:20:26;;;;;;;2.60;2.40;;;15.60;49.60;16.70;101961.00;;;;5065802;28;20174;-47
2022/03/15 02:22:52;;;;;;;2.40;2.20;;;15.70;49.70;16.70;101959.00;;;;5065988;28;20846;-47
2022/03/15 02:25:18;;;;;;;2.73;2.53;;;15.60;49.60;16.70;101942.00;;;;5065762;28;20723;-49
2022/03/15 02:27:43;;;;;;;2.70;2.50;;;15.60;49.60;16.70;101943.00;;;;5065693;28;20174;-45
2022/03/15 02:30:12;;;;;;;2.70;2.50;;;15.60;49.60;16.70;101939.00;;;;5065712;28;20174;-47
2022/03/15 02:32:38;;;;;;;2.63;2.43;;;15.60;49.60;16.70;101943.00;;;;5066154;28;20181;-46
2022/03/15 02:35:05;;;;;;;2.60;2.40;;;15.60;49.60;16.70;101946.00;;;;5065607;28;20229;-47
2022/03/15 02:37:31;;;;;;;2.63;2.43;;;15.60;49.60;16.70;101943.00;;;;5067237;28;20723;-47
2022/03/15 02:39:57;;;;;;;2.80;2.60;;;15.60;49.60;16.70;101943.00;;;;5065280;28;20166;-46
2022/03/15 02:42:23;;;;;;;2.70;2.50;;;15.50;49.60;16.60;101940.00;;;;5066019;28;20235;-46
2022/03/15 02:44:49;;;;;;;2.60;2.40;;;15.50;49.50;16.60;101933.00;;;;5065489;28;20240;-51
2022/03/15 02:47:14;;;;;;;2.70;2.50;;;15.50;49.50;16.60;101931.00;;;;5065665;28;20176;-47
2022/03/15 02:49:40;;;;;;;2.60;2.40;;;15.50;49.60;16.60;101941.00;;;;5065751;28;20170;-47
2022/03/15 02:52:06;;;;;;;2.57;2.37;;;15.50;49.50;16.60;101930.00;;;;5065553;28;20693;-46
2022/03/15 02:54:32;;;;;;;2.93;2.73;;;15.50;49.50;16.60;101926.00;;;;5065716;28;20170;-47
2022/03/15 02:56:58;;;;;;;2.63;2.43;;;15.50;49.60;16.60;101912.00;;;;5066080;28;20169;-47
2022/03/15 02:59:23;;;;;;;2.50;2.30;;;15.50;49.50;16.60;101917.00;;;;5068054;28;20593;-47
2022/03/15 03:01:50;;;;;;;2.50;2.30;;;15.50;49.50;16.50;101923.00;;;;5068172;28;20669;-48
2022/03/15 03:04:17;;;;;;;2.60;2.40;;;15.50;49.50;16.50;101913.00;;;;5068917;28;20236;-47
2022/03/15 03:06:43;;;;;;;2.80;2.60;;;15.50;49.50;16.50;101912.00;;;;5068506;28;20177;-49
2022/03/15 03:09:11;;;;;;;2.60;2.40;;;15.40;49.50;16.50;101905.00;;;;5069071;28;20374;-46
2022/03/15 03:11:37;;;;;;;2.50;2.30;;;15.40;49.40;16.50;101913.00;;;;5068856;28;20194;-46
2022/03/15 03:14:04;;;;;;;2.60;2.40;;;15.40;49.50;16.50;101836.00;;;;5068839;28;20262;-46
2022/03/15 03:16:29;;;;;;;2.60;2.40;;;15.40;49.40;16.50;101904.00;;;;5070316;28;20197;-48
2022/03/15 03:18:59;;;;;;;2.50;2.30;;;15.40;49.40;16.50;101898.00;;;;5072297;28;20185;-45
2022/03/15 03:21:28;;;;;;;2.40;2.20;;;15.40;49.40;16.50;101895.00;;;;5071357;28;20178;-47
2022/03/15 03:23:55;;;;;;;2.43;2.23;;;15.30;49.40;16.50;101901.00;;;;5072399;28;20209;-47
2022/03/15 03:26:24;;;;;;;2.60;2.40;;;15.40;49.40;16.50;101890.00;;;;5069314;28;20189;-46
2022/03/15 03:28:50;;;;;;;2.63;2.43;;;15.40;49.40;16.40;101892.00;;;;5070927;28;20181;-46
2022/03/15 03:31:16;;;;;;;2.70;2.50;;;15.40;49.50;16.40;101896.00;;;;5070217;28;20220;-47
2022/03/15 03:33:42;;;;;;;2.47;2.27;;;15.40;49.40;16.40;101905.00;;;;5075407;28;20194;-48
2022/03/15 03:36:09;;;;;;;2.40;2.20;;;15.30;49.40;16.40;101894.00;;;;5078867;28;20200;-46
2022/03/15 03:38:35;;;;;;;2.37;2.20;;;15.30;49.40;16.40;101889.00;;;;5068818;28;20174;-47
2022/03/15 03:41:02;;;;;;;2.33;2.20;;;15.30;49.40;16.40;101903.00;;;;5068117;28;20194;-48
2022/03/15 03:43:28;;;;;;;2.70;2.50;;;15.30;49.50;16.40;101883.00;;;;5068708;28;20215;-47
2022/03/15 03:45:55;;;;;;;2.83;2.63;;;15.30;49.40;16.30;101879.00;;;;5059818;28;20950;-48
2022/03/15 03:48:23;;;;;;;2.60;2.40;;;15.30;49.60;16.30;101880.00;;;;5048195;28;20225;-47
2022/03/15 03:50:49;;;;;;;2.33;2.13;;;15.20;49.60;16.30;101879.00;;;;5048574;28;20261;-48
2022/03/15 03:53:16;;;;;;;2.60;2.40;;;15.30;49.70;16.30;101886.00;;;;5048188;28;20182;-49
2022/03/15 03:55:41;;;;;;;2.50;2.30;;;15.30;49.70;16.30;101882.00;;;;5047812;28;20248;-47
2022/03/15 03:58:07;;;;;;;2.30;2.20;;;15.20;49.50;16.30;101879.00;;;;5048240;28;20194;-47
2022/03/15 04:00:33;;;;;;;2.67;2.47;;;15.30;49.60;16.30;101876.00;;;;5049444;28;20185;-47
2022/03/15 04:03:00;;;;;;;2.57;2.37;;;15.20;49.60;16.30;101875.00;;;;5049516;28;20178;-46
2022/03/15 04:05:27;;;;;;;2.47;2.27;;;15.20;49.70;16.30;101878.00;;;;5047969;28;20237;-47
2022/03/15 04:07:53;;;;;;;2.50;2.30;;;15.20;49.60;16.30;101877.00;;;;5048663;28;20749;-48
2022/03/15 04:10:21;;;;;;;2.40;2.20;;;15.20;49.70;16.30;101885.00;;;;5048933;28;20236;-46
2022/03/15 04:12:47;;;;;;;2.33;2.20;;;15.20;49.60;16.30;101892.00;;;;5049578;28;20178;-50
2022/03/15 04:15:12;;;;;;;2.50;2.30;;;15.20;49.50;16.20;101898.00;;;;5050267;28;20232;-46
2022/03/15 04:17:38;;;;;;;2.33;2.13;;;15.20;49.70;16.20;101893.00;;;;5048469;28;20193;-45
2022/03/15 04:20:05;;;;;;;2.50;2.30;;;15.20;49.70;16.20;101887.00;;;;5048394;28;20212;-47
2022/03/15 04:22:31;;;;;;;2.40;2.20;;;15.10;49.60;16.20;101892.00;;;;5048528;28;20589;-46
2022/03/15 04:24:56;;;;;;;2.43;2.23;;;15.20;49.60;16.20;101881.00;;;;5046612;28;20206;-48
2022/03/15 04:27:22;;;;;;;2.83;2.30;;;15.10;49.50;16.20;101878.00;;;;5048068;28;20182;-47
2022/03/15 04:29:48;;;;;;;2.57;2.37;;;15.10;49.80;16.20;101865.00;;;;5049268;28;20547;-46
2022/03/15 04:32:14;;;;;;;5.03;2.20;;;15.10;50.20;16.20;101878.00;;;;5053102;28;20177;-48
2022/03/15 04:34:39;;;;;;;3.77;2.30;;;15.10;50.60;16.10;101880.00;;;;5054446;28;20198;-47
2022/03/15 04:37:05;;;;;;;3.47;2.30;;;15.10;50.00;16.10;101880.00;;;;5050852;28;20196;-48
2022/03/15 04:39:31;;;;;;;2.60;2.40;;;15.10;49.80;16.10;101885.00;;;;5049825;28;20178;-49
2022/03/15 04:41:57;;;;;;;2.93;2.20;;;15.10;49.80;16.10;101873.00;;;;5048730;28;20205;-48
2022/03/15 04:44:22;;;;;;;4.23;2.40;;;15.10;49.70;16.10;101876.00;;;;5047283;28;20206;-48
2022/03/15 04:46:48;;;;;;;2.80;2.30;;;15.10;49.70;16.10;101871.00;;;;5047221;28;20167;-47
2022/03/15 04:49:14;;;;;;;2.30;2.10;;;15.10;49.70;16.10;101859.00;;;;5046996;28;20177;-49
2022/03/15 04:51:40;;;;;;;2.50;2.30;;;15.10;49.70;16.10;101860.00;;;;5049312;28;20177;-47
2022/03/15 04:54:05;;;;;;;3.00;2.23;;;15.00;49.60;16.10;101853.00;;;;5047369;28;20657;-47
2022/03/15 04:56:31;;;;;;;3.20;2.40;;;15.00;49.60;16.10;101854.00;;;;5046434;28;20197;-47
2022/03/15 04:58:57;;;;;;;3.23;2.23;;;15.00;49.60;16.10;101799.00;;;;5052743;28;20697;-49
2022/03/15 05:01:23;;;;;;;2.70;2.40;;;15.00;49.60;16.10;101859.00;;;;5065902;28;20185;-47
2022/03/15 05:03:49;;;;;;;3.20;2.20;;;15.00;49.60;16.00;101854.00;;;;5057405;28;20645;-49
2022/03/15 05:06:16;;;;;;;6.03;2.30;;;14.90;49.40;16.10;101844.00;;;;5045808;28;20225;-46
2022/03/15 05:08:41;;;;;;;3.10;2.53;;;15.00;49.60;16.10;101843.00;;;;5046159;28;20714;-47
2022/03/15 05:11:07;;;;;;;3.67;2.67;;;15.00;49.60;16.00;101850.00;;;;5046205;28;20170;-49
2022/03/15 05:13:42;;;;;;;4.63;2.53;;;15.00;49.60;16.00;101841.00;;;;5049310;28;20178;-49
2022/03/15 05:16:10;;;;;;;4.63;2.30;;;15.00;49.80;15.80;101837.00;;;;5046832;28;20682;-47
2022/03/15 05:18:35;;;;;;;5.93;2.40;;;14.90;49.70;16.00;101842.00;;;;5063660;28;20181;-56
2022/03/15 05:21:04;;;;;;;13.20;2.93;;;14.90;49.80;16.00;101837.00;;;;5053268;28;20197;-49
2022/03/15 05:23:30;;;;;;;12.23;3.23;;;14.90;49.80;16.00;101839.00;;;;5046635;28;20671;-46
2022/03/15 05:25:56;;;;;;;19.00;3.80;;;14.90;49.80;16.00;101841.00;;;;5045711;28;20205;-48
2022/03/15 05:28:21;;;;;;;16.77;4.37;;;14.90;49.80;16.00;101841.00;;;;5045046;28;20780;-46
2022/03/15 05:30:47;;;;;;;18.73;4.10;;;14.90;49.80;16.00;101827.00;;;;5046261;28;20163;-49
2022/03/15 05:33:13;;;;;;;16.50;4.07;;;14.80;49.80;16.00;101828.00;;;;5045731;28;20178;-49
2022/03/15 05:35:39;;;;;;;15.67;3.73;;;14.90;49.90;16.00;101832.00;;;;5045506;28;20205;-46
2022/03/15 05:38:04;;;;;;;16.63;3.87;;;14.80;49.90;15.90;101835.00;;;;5045856;28;20251;-47
2022/03/15 05:40:31;;;;;;;11.97;3.77;;;14.90;50.00;15.90;101824.00;;;;5046653;28;20873;-48
2022/03/15 05:42:57;;;;;;;11.73;3.63;;;14.90;50.10;15.90;101843.00;;;;5046171;28;20159;-48
2022/03/15 05:45:24;;;;;;;15.93;3.43;;;14.80;50.00;15.90;101831.00;;;;5045478;28;20297;-48
2022/03/15 05:47:50;;;;;;;9.20;3.20;;;14.90;50.00;15.90;101826.00;;;;5046128;28;20182;-46
2022/03/15 05:50:16;;;;;;;9.90;3.20;;;14.80;50.30;15.90;101823.00;;;;5046041;28;20170;-49
2022/03/15 05:52:41;;;;;;;8.00;3.20;;;14.90;50.40;15.90;101827.00;;;;5046161;28;20678;-49
2022/03/15 05:55:10;;;;;;;9.47;3.40;;;14.80;50.10;15.90;101821.00;;;;5045589;28;20686;-48
2022/03/15 05:57:36;;;;;;;11.30;3.50;;;14.80;50.10;15.90;101821.00;;;;5046040;28;20175;-49
2022/03/15 06:00:01;;;;;;;11.40;3.10;;;14.80;50.00;15.70;101816.00;;;;5047171;28;20161;-46
2022/03/15 06:02:27;;;;;;;8.30;3.53;;;14.80;50.20;15.90;101815.00;;;;5049817;28;20602;-47
2022/03/15 06:04:53;;;;;;;11.37;3.40;;;14.80;50.00;15.90;101810.00;;;;5045897;28;20206;-50
2022/03/15 06:07:18;;;;;;;7.50;3.50;;;14.80;50.20;15.90;101815.00;;;;5046045;28;20181;-47
2022/03/15 06:09:44;;;;;;;9.07;3.40;;;14.70;50.20;15.80;101807.00;;;;5046872;28;20192;-49
2022/03/15 06:12:10;;;;;;;7.50;2.90;;;14.70;50.40;15.80;101802.00;;;;5054917;28;20173;-47
2022/03/15 06:14:36;;;;;;;6.93;3.40;;;14.70;50.20;15.80;101802.00;;;;5045211;28;20197;-47
2022/03/15 06:17:01;;;;;;;5.57;3.17;;;14.70;50.20;15.80;101814.00;;;;5044817;28;20181;-48
2022/03/15 06:19:27;;;;;;;4.97;3.03;;;14.70;50.20;15.80;101805.00;;;;5043957;28;20282;-49
2022/03/15 06:21:53;;;;;;;6.33;2.97;;;14.60;50.20;15.80;101707.00;;;;5045025;28;20187;-49
2022/03/15 06:24:18;;;;;;;5.77;2.80;;;14.60;50.10;15.70;101801.00;;;;5044987;28;20706;-50
2022/03/15 06:26:45;;;;;;;3.77;2.87;;;14.60;50.10;15.50;101805.00;;;;5044690;28;20212;-48
2022/03/15 06:29:11;;;;;;;5.17;2.80;;;14.70;50.20;15.70;101806.00;;;;5045529;28;20220;-46
2022/03/15 06:31:37;;;;;;;6.07;2.90;;;14.70;50.20;15.70;101799.00;;;;5045948;28;20743;-47
2022/03/15 06:34:06;;;;;;;7.27;2.73;;;14.60;50.10;15.70;101810.00;;;;5049287;28;20185;-48
2022/03/15 06:36:34;;;;;;;4.70;2.83;;;14.60;50.10;15.70;101799.00;;;;5051097;28;20201;-47
2022/03/15 06:38:59;;;;;;;5.17;2.80;;;14.60;50.10;15.70;101808.00;;;;5051782;28;20182;-48
2022/03/15 06:41:25;;;;;;;5.70;2.80;;;14.60;50.00;15.70;101804.00;;;;5050855;28;20178;-46
2022/03/15 06:43:51;;;;;;;4.37;2.70;;;14.60;50.00;15.70;101800.00;;;;5048974;28;20197;-51
2022/03/15 06:46:17;;;;;;;4.70;2.70;;;14.60;50.10;15.70;101798.00;;;;5051038;28;20197;-51
2022/03/15 06:48:42;;;;;;;3.40;2.70;;;14.50;50.10;15.70;101795.00;;;;5052295;28;20178;-47
2022/03/15 06:51:08;;;;;;;5.13;2.80;;;14.60;50.10;15.70;101786.00;;;;5050151;28;20158;-46
2022/03/15 06:53:34;;;;;;;3.90;2.67;;;14.50;50.10;15.60;101787.00;;;;5048212;28;20271;-48
2022/03/15 06:55:59;;;;;;;5.00;2.70;;;14.50;50.20;15.60;101783.00;;;;5056814;28;20189;-48
2022/03/15 06:58:25;;;;;;;4.77;2.40;;;14.40;50.50;15.60;101793.00;;;;5055651;28;20188;-49
2022/03/15 07:00:52;;;;;;;5.00;2.43;;;14.50;50.30;15.60;101790.00;;;;5048678;28;20667;-48
2022/03/15 07:03:17;;;;;;;3.23;2.50;;;14.50;50.10;15.60;101793.00;;;;5052440;28;20553;-49
2022/03/15 07:05:44;;;;;;;4.90;2.77;;;14.40;50.30;15.60;101780.00;;;;5048270;28;20210;-48
2022/03/15 07:08:10;;;;;;;4.10;2.60;;;14.40;50.40;15.60;101776.00;;;;5048736;28;20166;-46
2022/03/15 07:10:36;;;;;;;4.73;2.50;;;14.50;50.20;15.60;101773.00;;;;5048459;28;20177;-47
2022/03/15 07:13:01;;;;;;;2.57;2.30;;;14.50;50.10;15.60;101786.00;;;;5048274;28;20178;-46
2022/03/15 07:15:27;;;;;;;5.50;2.30;;;14.40;50.30;15.50;101785.00;;;;5046659;28;20198;-47
2022/03/15 07:17:55;;;;;;;4.70;2.47;;;14.40;50.20;15.50;101783.00;;;;5048607;28;20824;-48
2022/03/15 07:20:21;;;;;;;4.03;2.57;;;14.40;50.30;15.50;101783.00;;;;5048458;28;20553;-48
2022/03/15 07:22:47;;;;;;;2.50;2.23;;;14.40;50.40;15.50;101769.00;;;;5048282;28;20258;-48
2022/03/15 07:25:13;;;;;;;3.93;2.53;;;14.40;50.20;15.50;101771.00;;;;5047710;28;20209;-47
2022/03/15 07:27:39;;;;;;;2.87;2.30;;;14.40;50.20;15.50;101765.00;;;;5048156;28;20182;-48
2022/03/15 07:30:05;;;;;;;2.70;2.30;;;14.40;50.00;15.50;101775.00;;;;5052473;28;20175;-48
2022/03/15 07:32:31;;;;;;;2.90;2.20;;;14.50;50.10;15.50;101778.00;;;;5048041;28;20598;-47
2022/03/15 07:34:56;;;;;;;3.03;2.40;;;14.50;50.00;15.50;101776.00;;;;5049088;28;20222;-49
2022/03/15 07:37:22;;;;;;;3.10;2.20;;;14.50;50.10;15.50;101768.00;;;;5048660;28;20174;-49
2022/03/15 07:39:48;;;;;;;3.03;2.40;;;14.40;50.30;15.50;101763.00;;;;5048717;28;20193;-48
2022/03/15 07:42:14;;;;;;;2.43;2.13;;;14.40;50.30;15.50;101760.00;;;;5049033;28;20850;-46
2022/03/15 07:44:42;;;;;;;5.30;2.30;;;14.30;50.30;15.50;101766.00;;;;5051755;28;20782;-47
2022/03/15 07:47:10;;;;;;;3.93;2.23;;;14.30;50.30;15.50;101762.00;;;;5071486;28;20173;-47
2022/03/15 07:49:36;;;;;;;3.80;2.30;;;14.30;50.20;15.40;101757.00;;;;5065093;28;20239;-49
2022/03/15 07:52:02;;;;;;;4.93;2.33;;;14.30;50.30;15.40;101740.00;;;;5053353;28;20212;-47
2022/03/15 07:54:27;;;;;;;4.53;2.40;;;14.30;50.30;15.40;101751.00;;;;5069162;28;20169;-48
2022/03/15 07:56:53;;;;;;;3.17;2.63;;;14.30;50.30;15.40;101753.00;;;;5056529;28;20213;-47
2022/03/15 07:59:19;;;;;;;4.50;2.30;;;14.30;50.30;15.40;101745.00;;;;5047369;28;20182;-46
2022/03/15 08:01:45;;;;;;;3.47;2.20;;;14.30;50.10;15.40;101744.00;;;;5046925;28;20340;-47
2022/03/15 08:04:10;;;;;;;3.67;2.37;;;14.30;50.30;15.40;101746.00;;;;5047579;28;20221;-47
2022/03/15 08:06:36;;;;;;;4.07;2.20;;;14.20;50.40;15.40;101742.00;;;;5046225;28;20201;-47
2022/03/15 08:09:03;;;;;;;4.70;2.47;;;14.20;50.40;15.40;101745.00;;;;5056938;28;20239;-47
2022/03/15 08:11:29;;;;;;;3.13;2.13;;;14.20;50.30;15.40;101734.00;;;;5065578;28;20806;-49
2022/03/15 08:13:54;;;;;;;2.73;2.30;;;14.20;50.50;15.40;101737.00;;;;5066835;28;20170;-48
2022/03/15 08:16:23;;;;;;;3.67;2.20;;;14.20;50.40;15.40;101719.00;;;;5065378;28;20201;-48
2022/03/15 08:18:50;;;;;;;3.40;2.30;;;14.30;50.70;15.40;101723.00;;;;5066010;28;20245;-50
2022/03/15 08:21:16;;;;;;;4.60;2.10;;;14.30;51.00;15.40;101731.00;;;;5065811;28;20166;-48
2022/03/15 08:23:43;;;;;;;3.17;2.13;;;14.30;51.10;15.40;101728.00;;;;5067226;28;20180;-48
2022/03/15 08:26:09;;;;;;;5.87;2.10;;;14.20;50.90;15.40;101721.00;;;;5068189;28;20681;-49
2022/03/15 08:28:35;;;;;;;5.00;2.20;;;14.20;51.20;15.30;101731.00;;;;5065265;28;20181;-49
2022/03/15 08:31:01;;;;;;;9.93;2.83;;;14.20;51.20;15.30;101727.00;;;;5066937;28;20173;-47
2022/03/15 08:33:26;;;;;;;4.63;2.33;;;14.20;51.40;15.30;101727.00;;;;5077541;28;20662;-50
2022/03/15 08:35:52;;;;;;;5.80;2.30;;;14.10;51.70;15.30;101723.00;;;;5074666;28;20205;-45
2022/03/15 08:38:18;;;;;;;7.80;2.70;;;14.10;51.70;15.30;101721.00;;;;5066650;28;20177;-47
2022/03/15 08:40:44;;;;;;;3.70;2.27;;;14.20;51.60;15.30;101666.00;;;;5066053;28;20185;-47
2022/03/15 08:43:09;;;;;;;3.47;2.20;;;14.10;51.40;15.30;101710.00;;;;5066834;28;20545;-48
2022/03/15 08:45:35;;;;;;;6.20;2.50;;;14.20;51.20;15.30;101730.00;;;;5054790;28;20243;-49
2022/03/15 08:48:01;;;;;;;3.20;2.13;;;14.20;51.20;15.30;101719.00;;;;5046815;28;20185;-45
2022/03/15 08:50:27;;;;;;;4.03;2.10;;;14.20;51.00;15.30;101717.00;;;;5046354;28;20177;-49
2022/03/15 08:52:55;;;;;;;4.13;2.20;;;14.20;51.00;15.30;101727.00;;;;5046937;28;20164;-48
2022/03/15 08:55:22;;;;;;;4.20;2.33;;;14.20;50.70;15.30;101719.00;;;;5045361;28;20207;-47
2022/03/15 08:57:48;;;;;;;4.37;2.30;;;14.20;50.70;15.30;101724.00;;;;5044684;28;20206;-47
2022/03/15 09:00:14;;;;;;;4.73;2.37;;;14.20;51.00;15.30;101725.00;;;;5046909;28;20588;-49
2022/03/15 09:02:40;;;;;;;3.40;2.10;;;14.20;50.60;15.30;101703.00;;;;5046391;28;20170;-47
2022/03/15 09:05:06;;;;;;;4.17;2.10;;;14.20;50.50;15.30;101711.00;;;;5046151;28;20273;-49
2022/03/15 09:07:32;;;;;;;5.03;2.20;;;14.20;50.60;15.30;101700.00;;;;5046591;28;20693;-49
2022/03/15 09:09:58;;;;;;;3.53;2.27;;;14.30;50.70;15.30;101704.00;;;;5045900;28;20198;-46
2022/03/15 09:12:23;;;;;;;3.10;2.10;;;14.20;50.50;15.30;101697.00;;;;5046142;28;20170;-48
2022/03/15 09:14:49;;;;;;;2.83;2.00;;;14.30;50.50;15.30;101707.00;;;;5046064;28;20186;-49
2022/03/15 09:17:15;;;;;;;2.53;2.13;;;14.30;50.40;15.30;101695.00;;;;5045503;28;20662;-48
2022/03/15 09:19:42;;;;;;;2.70;2.07;;;14.20;50.30;15.30;101691.00;;;;5052822;28;20267;-47
2022/03/15 09:22:08;;;;;;;9.47;2.70;;;14.30;50.50;15.30;101693.00;;;;5067514;28;20323;-46
2022/03/15 09:24:35;;;;;;;6.70;2.40;;;14.20;50.90;15.30;101690.00;;;;5068487;28;20193;-48
2022/03/15 09:27:01;;;;;;;4.80;2.30;;;14.10;51.20;15.30;101686.00;;;;5068363;28;20174;-47
2022/03/15 09:29:27;;;;;;;7.80;2.60;;;14.20;51.40;15.30;101693.00;;;;5068628;28;20170;-49
2022/03/15 09:31:53;;;;;;;5.63;2.80;;;14.20;51.40;15.30;101697.00;;;;5068664;28;20720;-47
2022/03/15 09:34:22;;;;;;;5.80;2.53;;;14.50;51.60;15.30;101686.00;;;;5068265;28;20181;-44
2022/03/15 09:36:49;;;;;;;3.87;2.20;;;14.70;51.50;15.40;101682.00;;;;5068265;28;20185;-45
2022/03/15 09:39:14;;;;;;;7.27;2.50;;;14.90;51.30;15.50;101682.00;;;;5068208;28;20185;-48
2022/03/15 09:41:40;;;;;;;6.00;2.30;;;14.90;51.10;15.30;101687.00;;;;5068302;28;20536;-47
2022/03/15 09:44:08;;;;;;;4.60;2.30;;;15.10;51.10;15.60;101679.00;;;;5068832;28;20299;-45
2022/03/15 09:46:42;;;;;;;8.07;2.57;;;15.10;51.00;15.70;101680.00;;;;5050114;28;20190;-49
2022/03/15 09:49:08;;;;;;;5.27;2.40;;;15.20;51.00;15.70;101682.00;;;;5047360;28;20169;-47
2022/03/15 09:51:35;;;;;;;3.37;2.20;;;15.20;50.80;15.80;101673.00;;;;5048041;28;20577;-46
2022/03/15 09:54:04;;;;;;;11.40;2.50;;;15.20;50.70;15.90;101677.00;;;;5051321;28;20162;-47
2022/03/15 09:56:29;;;;;;;6.37;2.33;;;15.30;50.70;15.90;101662.00;;;;5050888;28;20182;-47
2022/03/15 09:58:55;;;;;;;3.63;2.30;;;15.30;50.70;15.90;101673.00;;;;5047605;28;20206;-48
2022/03/15 10:01:21;;;;;;;6.17;2.10;;;15.40;50.80;16.00;101657.00;;;;5048448;28;20166;-46
2022/03/15 10:03:47;;;;;;;7.20;2.27;;;15.40;50.60;16.00;101641.00;;;;5048376;28;20201;-46
2022/03/15 10:06:16;;;;;;;4.37;2.10;;;15.40;50.50;16.10;101663.00;;;;5048745;28;20228;-47
2022/03/15 10:08:42;;;;;;;4.93;2.20;;;15.50;50.50;16.10;101654.00;;;;5054945;28;20166;-47
2022/03/15 10:11:09;;;;;;;3.00;2.07;;;15.50;50.50;16.10;101664.00;;;;5065400;28;20173;-50
2022/03/15 10:13:35;;;;;;;2.40;2.07;;;15.60;50.50;16.20;101663.00;;;;5059669;28;20197;-48
2022/03/15 10:16:03;;;;;;;1.97;1.77;;;15.60;50.50;16.20;101656.00;;;;5054760;28;20271;-47
2022/03/15 10:18:29;;;;;;;2.33;1.90;;;15.60;50.40;16.30;101658.00;;;;5057299;28;20170;-46
2022/03/15 10:20:55;;;;;;;3.27;1.90;;;15.70;50.40;16.30;101648.00;;;;5054197;28;20162;-47
2022/03/15 10:23:29;;;;;;;3.30;1.97;;;15.70;50.40;16.30;101651.00;;;;5054963;28;20170;-47
2022/03/15 10:25:55;;;;;;;3.13;2.10;;;15.70;50.40;16.30;101640.00;;;;5054231;28;20212;-48
2022/03/15 10:28:21;;;;;;;3.40;1.97;;;15.70;50.40;16.40;101637.00;;;;5053743;28;20170;-47
2022/03/15 10:30:47;;;;;;;2.43;1.93;;;15.80;50.40;16.40;101639.00;;;;5053386;28;20170;-48
2022/03/15 10:33:16;;;;;;;2.50;1.90;;;15.80;50.40;16.40;101634.00;;;;5055195;28;20640;-46
2022/03/15 10:35:45;;;;;;;3.93;1.90;;;15.80;50.30;16.50;101636.00;;;;5054811;28;20277;-48
2022/03/15 10:38:11;;;;;;;3.10;2.00;;;15.80;50.30;16.50;101633.00;;;;5055465;28;20174;-48
2022/03/15 10:40:49;;;;;;;2.20;2.00;;;15.90;50.30;16.50;101639.00;;;;5036918;28;20186;-48
2022/03/15 10:43:25;;;;;;;2.50;2.10;;;15.90;50.40;16.50;101644.00;;;;5053089;28;20205;-47